Time;durP1;ratioP1;P1;durP2;ratioP2;P2;SDS_P1;SDS_P2;PMS_P1;PMS_P2;Temp;Humidity;BMP_temperature;BMP_pressure;BME280_temperature;BME280_humidity;BME280_pressure;Samples;Min_cycle;Max_cycle;Signal;HPM_P1;HPM_P2
2023/09/13 00:01:22;;;;;;;4.40;4.00;;;;;;;;;;6228734;23;20603;-88
2023/09/13 00:03:50;;;;;;;4.77;4.37;;;;;;;;;;6247377;22;21034;-88
2023/09/13 00:06:18;;;;;;;4.40;4.10;;;;;;;;;;6250518;23;20578;-88
2023/09/13 00:08:47;;;;;;;4.00;3.70;;;;;;;;;;6250806;23;20653;-88
2023/09/13 00:11:16;;;;;;;9.40;4.50;;;;;;;;;;6248657;23;20589;-88
2023/09/13 00:13:45;;;;;;;4.20;3.90;;;;;;;;;;6249337;22;20701;-86
2023/09/13 00:16:15;;;;;;;5.20;4.07;;;;;;;;;;6223338;22;20662;-86
2023/09/13 00:18:44;;;;;;;5.67;5.03;;;;;;;;;;6223763;23;20618;-86
2023/09/13 00:21:12;;;;;;;4.60;4.20;;;;;;;;;;6223942;23;20686;-85
2023/09/13 00:23:41;;;;;;;5.73;4.73;;;;;;;;;;6250051;23;20650;-86
2023/09/13 00:26:09;;;;;;;5.43;4.97;;;;;;;;;;6249597;23;20662;-86
2023/09/13 00:28:37;;;;;;;5.83;5.00;;;;;;;;;;6221783;23;20670;-86
2023/09/13 00:31:06;;;;;;;5.20;4.80;;;;;;;;;;6249326;23;20582;-86
2023/09/13 00:33:35;;;;;;;9.50;4.90;;;;;;;;;;6250602;23;20664;-87
2023/09/13 00:36:04;;;;;;;5.87;4.70;;;;;;;;;;6199566;23;20670;-87
2023/09/13 00:38:32;;;;;;;4.43;4.03;;;;;;;;;;6225428;23;20615;-87
2023/09/13 00:41:01;;;;;;;4.90;4.50;;;;;;;;;;6249791;23;20641;-88
2023/09/13 00:43:30;;;;;;;6.83;4.70;;;;;;;;;;6250762;23;20569;-88
2023/09/13 00:45:59;;;;;;;7.00;4.70;;;;;;;;;;6251031;22;20606;-87
2023/09/13 00:48:28;;;;;;;4.70;4.30;;;;;;;;;;6226306;23;21126;-88
2023/09/13 00:51:00;;;;;;;5.07;4.67;;;;;;;;;;6225490;23;20567;-87
2023/09/13 00:53:30;;;;;;;8.53;4.90;;;;;;;;;;6228836;23;20610;-91
2023/09/13 00:55:59;;;;;;;4.43;4.13;;;;;;;;;;6252748;22;20586;-91
2023/09/13 00:58:28;;;;;;;5.57;4.70;;;;;;;;;;6203372;23;20597;-91
2023/09/13 01:00:56;;;;;;;4.73;4.33;;;;;;;;;;6201403;23;20567;-91
2023/09/13 01:03:25;;;;;;;5.00;4.70;;;;;;;;;;6201752;23;20598;-90
2023/09/13 01:05:55;;;;;;;6.03;5.10;;;;;;;;;;6200270;23;20616;-91
2023/09/13 01:08:25;;;;;;;7.00;4.47;;;;;;;;;;6203857;23;20605;-91
2023/09/13 01:10:53;;;;;;;5.20;4.80;;;;;;;;;;6255758;22;20583;-91
2023/09/13 01:13:22;;;;;;;5.20;4.80;;;;;;;;;;6202585;23;20677;-91
2023/09/13 01:15:54;;;;;;;6.00;5.17;;;;;;;;;;6178284;23;20597;-91
2023/09/13 01:18:25;;;;;;;6.50;5.00;;;;;;;;;;6255848;23;20584;-92
2023/09/13 01:21:00;;;;;;;5.13;4.73;;;;;;;;;;6205285;23;20590;-89
2023/09/13 01:23:51;;;;;;;5.93;5.00;;;;;;;;;;6204154;23;20582;-90
2023/09/13 01:26:33;;;;;;;5.30;4.87;;;;;;;;;;6203651;23;20615;-91
2023/09/13 01:29:04;;;;;;;5.97;5.47;;;;;;;;;;6229323;23;20586;-91
2023/09/13 01:31:33;;;;;;;7.33;4.93;;;;;;;;;;6253782;23;20590;-91
2023/09/13 01:34:01;;;;;;;5.53;5.13;;;;;;;;;;6229153;23;21170;-90
2023/09/13 01:36:30;;;;;;;5.60;5.10;;;;;;;;;;6228763;23;20602;-89
2023/09/13 01:39:00;;;;;;;4.40;4.10;;;;;;;;;;6226473;23;21103;-90
2023/09/13 01:41:31;;;;;;;5.27;4.80;;;;;;;;;;6255655;23;20594;-89
2023/09/13 01:44:00;;;;;;;4.30;4.00;;;;;;;;;;6227732;23;20582;-90
2023/09/13 01:46:34;;;;;;;5.90;4.97;;;;;;;;;;6228387;23;20547;-90
2023/09/13 01:49:03;;;;;;;9.03;5.10;;;;;;;;;;6228111;23;20570;-90
2023/09/13 01:51:33;;;;;;;5.80;5.27;;;;;;;;;;6204309;23;20617;-90
2023/09/13 01:54:02;;;;;;;5.30;4.70;;;;;;;;;;6227690;23;20619;-90
2023/09/13 01:56:30;;;;;;;5.20;4.70;;;;;;;;;;6202931;23;20574;-89
2023/09/13 01:58:59;;;;;;;5.13;4.73;;;;;;;;;;6202775;23;20586;-89
2023/09/13 02:01:27;;;;;;;6.70;5.57;;;;;;;;;;6202354;23;20603;-89
2023/09/13 02:03:57;;;;;;;5.73;5.33;;;;;;;;;;6227052;23;20606;-88
2023/09/13 02:06:25;;;;;;;5.87;5.37;;;;;;;;;;6202382;23;20602;-88
2023/09/13 02:08:54;;;;;;;4.73;4.43;;;;;;;;;;6202584;23;20571;-90
2023/09/13 02:11:24;;;;;;;7.27;5.57;;;;;;;;;;6229029;23;21149;-90
2023/09/13 02:13:53;;;;;;;4.63;4.33;;;;;;;;;;6253217;23;20591;-90
2023/09/13 02:16:21;;;;;;;5.97;5.57;;;;;;;;;;6229481;23;20644;-89
2023/09/13 02:18:50;;;;;;;5.60;5.20;;;;;;;;;;6269005;22;20575;-90
2023/09/13 02:21:22;;;;;;;5.23;4.37;;;;;;;;;;6270419;23;20551;-90
2023/09/13 02:23:51;;;;;;;4.37;4.07;;;;;;;;;;6233062;23;20633;-90
2023/09/13 02:26:20;;;;;;;4.13;3.80;;;;;;;;;;6231541;23;20597;-90
2023/09/13 02:28:49;;;;;;;6.90;4.47;;;;;;;;;;6253330;23;20562;-90
2023/09/13 02:31:22;;;;;;;4.80;4.50;;;;;;;;;;6253858;23;20594;-90
2023/09/13 02:33:50;;;;;;;6.03;3.80;;;;;;;;;;6230089;23;20567;-90
2023/09/13 02:36:28;;;;;;;4.57;4.20;;;;;;;;;;6231507;23;21163;-90
2023/09/13 02:39:01;;;;;;;4.23;3.93;;;;;;;;;;6253820;23;20571;-89
2023/09/13 02:41:29;;;;;;;4.83;4.43;;;;;;;;;;6229911;23;20594;-89
2023/09/13 02:43:58;;;;;;;4.43;4.13;;;;;;;;;;6229480;23;20593;-89
2023/09/13 02:46:27;;;;;;;12.53;4.13;;;;;;;;;;6230637;23;20571;-89
2023/09/13 02:48:55;;;;;;;4.73;4.23;;;;;;;;;;6253903;22;20575;-88
2023/09/13 02:51:25;;;;;;;4.07;3.87;;;;;;;;;;6253986;23;20607;-89
2023/09/13 02:53:53;;;;;;;4.03;3.73;;;;;;;;;;6227831;23;20618;-91
2023/09/13 02:56:23;;;;;;;4.23;3.93;;;;;;;;;;6227919;23;20641;-90
2023/09/13 02:58:51;;;;;;;4.10;3.53;;;;;;;;;;6252984;22;20613;-89
2023/09/13 03:01:22;;;;;;;5.40;4.03;;;;;;;;;;6226695;23;20602;-89
2023/09/13 03:03:51;;;;;;;4.20;3.90;;;;;;;;;;6202327;23;20597;-91
2023/09/13 03:06:19;;;;;;;4.27;3.97;;;;;;;;;;6252945;23;20598;-90
2023/09/13 03:08:48;;;;;;;4.57;4.17;;;;;;;;;;6227909;23;21114;-90
2023/09/13 03:11:21;;;;;;;5.77;3.90;;;;;;;;;;6227357;23;20652;-89
2023/09/13 03:13:51;;;;;;;3.80;3.60;;;;;;;;;;6253959;23;20519;-90
2023/09/13 03:16:23;;;;;;;4.17;3.77;;;;;;;;;;6254371;23;20611;-90
2023/09/13 03:18:54;;;;;;;6.20;4.53;;;;;;;;;;6229747;23;20609;-89
2023/09/13 03:21:27;;;;;;;3.90;3.60;;;;;;;;;;6229276;23;20875;-89
2023/09/13 03:23:56;;;;;;;4.70;4.30;;;;;;;;;;6257169;23;20582;-88
2023/09/13 03:26:25;;;;;;;4.13;3.83;;;;;;;;;;6230367;22;20582;-90
2023/09/13 03:28:56;;;;;;;3.77;3.57;;;;;;;;;;6229239;22;20594;-90
2023/09/13 03:31:26;;;;;;;5.27;4.00;;;;;;;;;;6230217;23;20587;-89
2023/09/13 03:33:57;;;;;;;4.30;3.90;;;;;;;;;;6204443;23;20573;-87
2023/09/13 03:36:28;;;;;;;4.67;4.30;;;;;;;;;;6202969;23;20594;-88
2023/09/13 03:38:58;;;;;;;4.73;4.30;;;;;;;;;;6254788;23;20567;-89
2023/09/13 03:41:28;;;;;;;4.07;3.83;;;;;;;;;;6203068;23;21106;-89
2023/09/13 03:43:57;;;;;;;4.37;3.93;;;;;;;;;;6202993;23;20602;-88
2023/09/13 03:46:27;;;;;;;4.33;4.03;;;;;;;;;;6253517;23;20591;-89
2023/09/13 03:49:00;;;;;;;4.10;3.90;;;;;;;;;;6228520;23;20519;-89
2023/09/13 03:51:28;;;;;;;4.77;4.37;;;;;;;;;;6203473;23;20603;-89
2023/09/13 03:53:58;;;;;;;4.23;3.93;;;;;;;;;;6203238;23;21124;-90
2023/09/13 03:56:27;;;;;;;4.60;4.30;;;;;;;;;;6202937;23;20778;-90
2023/09/13 03:58:55;;;;;;;4.87;4.57;;;;;;;;;;6254159;23;20611;-90
2023/09/13 04:01:25;;;;;;;4.67;4.37;;;;;;;;;;6202890;23;20559;-90
2023/09/13 04:03:53;;;;;;;4.60;4.30;;;;;;;;;;6252180;23;20634;-90
2023/09/13 04:06:21;;;;;;;4.50;4.20;;;;;;;;;;6205956;23;20590;-90
2023/09/13 04:08:50;;;;;;;5.33;4.80;;;;;;;;;;6229372;23;20583;-91
2023/09/13 04:11:18;;;;;;;4.97;4.57;;;;;;;;;;6204753;23;20610;-92
2023/09/13 04:13:46;;;;;;;4.70;4.40;;;;;;;;;;6203466;23;20582;-89
2023/09/13 04:16:15;;;;;;;5.20;4.80;;;;;;;;;;6203101;23;20630;-91
2023/09/13 04:18:48;;;;;;;5.90;4.87;;;;;;;;;;6202844;23;20921;-90
2023/09/13 04:21:18;;;;;;;4.87;4.30;;;;;;;;;;6203579;23;20558;-90
2023/09/13 04:23:47;;;;;;;5.43;5.03;;;;;;;;;;6203222;23;20594;-91
2023/09/13 04:26:21;;;;;;;4.93;4.63;;;;;;;;;;6204268;23;21337;-90
2023/09/13 04:28:50;;;;;;;6.67;4.40;;;;;;;;;;6203694;23;20586;-91
2023/09/13 04:31:18;;;;;;;4.90;4.50;;;;;;;;;;6203189;23;20618;-91
2023/09/13 04:33:49;;;;;;;5.23;4.83;;;;;;;;;;6227978;22;20570;-91
2023/09/13 04:36:19;;;;;;;5.30;4.80;;;;;;;;;;6229210;23;20626;-91
2023/09/13 04:38:49;;;;;;;4.87;4.57;;;;;;;;;;6228453;22;20993;-90
2023/09/13 04:41:18;;;;;;;5.13;4.80;;;;;;;;;;6229240;22;20607;-91
2023/09/13 04:43:49;;;;;;;5.50;5.00;;;;;;;;;;6205586;23;20577;-90
2023/09/13 04:46:21;;;;;;;5.03;4.73;;;;;;;;;;6203948;23;20534;-90
2023/09/13 04:48:54;;;;;;;4.83;4.53;;;;;;;;;;6227446;23;20590;-91
2023/09/13 04:51:22;;;;;;;4.93;4.53;;;;;;;;;;6229289;23;20571;-91
2023/09/13 04:53:51;;;;;;;5.37;4.97;;;;;;;;;;6229010;23;20594;-91
2023/09/13 04:56:22;;;;;;;5.20;4.80;;;;;;;;;;6229329;22;20681;-90
2023/09/13 04:58:52;;;;;;;5.20;4.70;;;;;;;;;;6204294;23;20684;-90
2023/09/13 05:01:20;;;;;;;5.43;4.70;;;;;;;;;;6204627;23;20610;-90
2023/09/13 05:03:57;;;;;;;4.63;4.37;;;;;;;;;;6228289;23;20593;-90
2023/09/13 05:06:28;;;;;;;5.63;4.70;;;;;;;;;;6205137;23;20585;-90
2023/09/13 05:08:56;;;;;;;5.73;4.23;;;;;;;;;;6230250;22;20567;-89
2023/09/13 05:11:25;;;;;;;5.03;4.63;;;;;;;;;;6204854;23;21136;-92
2023/09/13 05:14:09;;;;;;;6.17;5.77;;;;;;;;;;6253485;23;20579;-86
2023/09/13 05:16:37;;;;;;;5.50;5.10;;;;;;;;;;6221457;23;20606;-87
2023/09/13 05:19:05;;;;;;;4.70;4.40;;;;;;;;;;6222722;23;20617;-86
2023/09/13 05:21:35;;;;;;;5.17;4.67;;;;;;;;;;6222399;23;20658;-86
2023/09/13 05:24:03;;;;;;;5.40;5.07;;;;;;;;;;6249654;23;20567;-85
2023/09/13 05:26:31;;;;;;;4.83;4.43;;;;;;;;;;6246489;23;20586;-84
2023/09/13 05:29:01;;;;;;;5.00;4.50;;;;;;;;;;6248968;23;20642;-86
2023/09/13 05:31:31;;;;;;;5.30;4.90;;;;;;;;;;6246873;23;20555;-85
2023/09/13 05:33:59;;;;;;;6.37;4.20;;;;;;;;;;6225057;23;20654;-87
2023/09/13 05:54:56;;;;;;;5.00;4.50;;;;;;;;;;6233226;22;20643;-88
2023/09/13 05:57:28;;;;;;;5.50;4.80;;;;;;;;;;6241399;23;20939;-86
2023/09/13 05:59:57;;;;;;;9.43;5.40;;;;;;;;;;6222929;23;20645;-86
2023/09/13 06:11:30;;;;;;;7.07;6.43;;;;;;;;;;6223697;22;20622;-88
2023/09/13 06:13:59;;;;;;;7.70;7.10;;;;;;;;;;6186721;23;20634;-90
2023/09/13 06:16:28;;;;;;;7.87;6.90;;;;;;;;;;6212282;23;20651;-89
2023/09/13 06:19:03;;;;;;;6.03;5.63;;;;;;;;;;6227605;23;21019;-89
2023/09/13 06:22:08;;;;;;;7.80;7.10;;;;;;;;;;6204420;23;20591;-91
2023/09/13 06:25:05;;;;;;;7.43;6.20;;;;;;;;;;6207101;23;20552;-90
2023/09/13 06:28:29;;;;;;;7.07;6.37;;;;;;;;;;6234894;23;20504;-92
2023/09/13 06:34:18;;;;;;;6.00;5.50;;;;;;;;;;6207091;22;20634;-91
2023/09/13 06:37:02;;;;;;;6.20;5.70;;;;;;;;;;6232955;22;20595;-90
2023/09/13 06:39:39;;;;;;;5.43;5.07;;;;;;;;;;6228323;22;20610;-89
2023/09/13 06:45:52;;;;;;;5.00;4.57;;;;;;;;;;6253860;22;20618;-90
2023/09/13 06:48:23;;;;;;;5.10;4.70;;;;;;;;;;6254699;22;20644;-91
2023/09/13 06:51:07;;;;;;;5.37;4.90;;;;;;;;;;6207401;23;20610;-94
2023/09/13 06:53:47;;;;;;;7.50;6.00;;;;;;;;;;6210757;22;20516;-92
2023/09/13 06:56:22;;;;;;;6.80;5.90;;;;;;;;;;6237139;22;20622;-89
2023/09/13 06:58:53;;;;;;;6.67;6.17;;;;;;;;;;6205114;22;20720;-89
2023/09/13 07:01:27;;;;;;;6.97;6.37;;;;;;;;;;6185951;22;20579;-90
2023/09/13 07:04:09;;;;;;;6.37;5.87;;;;;;;;;;6202274;22;20664;-89
2023/09/13 07:07:23;;;;;;;5.90;5.50;;;;;;;;;;6255188;22;20606;-90
2023/09/13 07:21:44;;;;;;;5.00;4.57;;;;;;;;;;6231627;23;20589;-90
2023/09/13 07:24:12;;;;;;;5.47;5.07;;;;;;;;;;6179289;23;20551;-89
2023/09/13 07:26:41;;;;;;;5.23;4.83;;;;;;;;;;6200461;23;20572;-89
2023/09/13 07:29:09;;;;;;;4.50;4.20;;;;;;;;;;6172144;23;20575;-89
2023/09/13 07:31:37;;;;;;;5.40;5.10;;;;;;;;;;6193542;23;20650;-88
2023/09/13 07:34:05;;;;;;;4.30;4.00;;;;;;;;;;6195545;23;21045;-89
2023/09/13 07:36:34;;;;;;;6.27;4.87;;;;;;;;;;6169484;23;20646;-88
2023/09/13 07:39:04;;;;;;;5.20;4.60;;;;;;;;;;6170952;23;20684;-88
2023/09/13 07:41:34;;;;;;;4.40;3.97;;;;;;;;;;6222870;23;20615;-91
2023/09/13 07:44:16;;;;;;;4.80;4.50;;;;;;;;;;6176531;23;20571;-90
2023/09/13 07:46:45;;;;;;;4.43;4.13;;;;;;;;;;6152007;23;20600;-89
2023/09/13 07:49:14;;;;;;;4.67;4.37;;;;;;;;;;6222942;23;20623;-89
2023/09/13 07:51:42;;;;;;;5.03;4.63;;;;;;;;;;6172648;23;20658;-89
2023/09/13 07:54:14;;;;;;;6.23;5.63;;;;;;;;;;6172030;23;21127;-89
2023/09/13 07:56:42;;;;;;;5.63;5.10;;;;;;;;;;6196518;23;20611;-88
2023/09/13 07:59:13;;;;;;;5.13;4.63;;;;;;;;;;6171039;23;20590;-89
2023/09/13 08:01:42;;;;;;;6.97;5.57;;;;;;;;;;6221436;23;20548;-90
2023/09/13 08:04:12;;;;;;;6.03;5.63;;;;;;;;;;6197365;23;20595;-90
2023/09/13 08:06:53;;;;;;;6.70;6.20;;;;;;;;;;6147275;23;20623;-90
2023/09/13 08:09:25;;;;;;;8.40;6.67;;;;;;;;;;6196460;23;20704;-89
2023/09/13 08:11:57;;;;;;;6.10;5.70;;;;;;;;;;6176427;23;20572;-89
2023/09/13 08:14:27;;;;;;;6.60;6.00;;;;;;;;;;6174665;23;20627;-90
2023/09/13 08:16:56;;;;;;;7.03;6.30;;;;;;;;;;6178155;23;20638;-90
2023/09/13 08:19:25;;;;;;;7.07;6.57;;;;;;;;;;6174151;23;20582;-89
2023/09/13 08:21:54;;;;;;;6.80;6.07;;;;;;;;;;6174684;23;20642;-90
2023/09/13 08:24:25;;;;;;;6.90;6.30;;;;;;;;;;6148353;23;21115;-87
2023/09/13 08:26:57;;;;;;;6.40;6.00;;;;;;;;;;6176162;23;20594;-89
2023/09/13 08:29:26;;;;;;;12.43;7.33;;;;;;;;;;6172034;23;20905;-91
2023/09/13 08:31:59;;;;;;;7.73;7.03;;;;;;;;;;6175532;23;20564;-90
2023/09/13 08:34:33;;;;;;;7.17;6.67;;;;;;;;;;6199254;23;21108;-89
2023/09/13 08:37:02;;;;;;;7.50;6.90;;;;;;;;;;6172629;23;20623;-89
2023/09/13 08:39:31;;;;;;;7.13;6.40;;;;;;;;;;6198900;23;20584;-88
2023/09/13 08:42:01;;;;;;;6.87;6.37;;;;;;;;;;6224191;23;21016;-90
2023/09/13 08:44:31;;;;;;;7.80;7.10;;;;;;;;;;6174568;23;20708;-89
2023/09/13 08:47:04;;;;;;;8.40;7.50;;;;;;;;;;6150667;23;20620;-88
2023/09/13 08:49:33;;;;;;;9.23;6.93;;;;;;;;;;6171725;23;20588;-88
2023/09/13 08:52:08;;;;;;;8.40;7.70;;;;;;;;;;6173066;23;20591;-89
2023/09/13 08:54:55;;;;;;;8.63;7.70;;;;;;;;;;6175454;23;20592;-90
2023/09/13 08:57:24;;;;;;;7.87;7.27;;;;;;;;;;6146849;23;20624;-90
2023/09/13 08:59:53;;;;;;;8.37;7.70;;;;;;;;;;6172620;23;21096;-90
2023/09/13 09:12:14;;;;;;;7.77;7.20;;;;;;;;;;6215160;22;20630;-88
2023/09/13 09:34:14;;;;;;;8.93;8.23;;;;;;;;;;6230665;23;20654;-90
2023/09/13 09:36:55;;;;;;;6.93;6.27;;;;;;;;;;6206223;23;20563;-88
2023/09/13 09:43:13;;;;;;;6.80;6.10;;;;;;;;;;6253370;22;20640;-89
2023/09/13 09:49:24;;;;;;;;;;;;;;;;;;;;;
2023/09/13 09:57:01;;;;;;;6.60;6.00;;;;;;;;;;6259306;22;20551;-85
2023/09/13 10:00:11;;;;;;;6.80;6.30;;;;;;;;;;6214449;23;20543;-88
2023/09/13 10:02:57;;;;;;;6.80;6.20;;;;;;;;;;6228137;22;20959;-89
2023/09/13 10:27:07;;;;;;;5.67;5.27;;;;;;;;;;6212065;23;20607;-91
2023/09/13 10:30:32;;;;;;;5.27;4.87;;;;;;;;;;6227038;23;20603;-92
2023/09/13 10:40:59;;;;;;;5.60;5.30;;;;;;;;;;6227935;23;20591;-91
2023/09/13 10:48:46;;;;;;;;;;;;;;;;;;;;;
2023/09/13 12:02:12;;;;;;;8.10;7.53;;;;;;;;;;6258525;22;20554;-89
2023/09/13 12:05:42;;;;;;;7.10;6.80;;;;;;;;;;6201440;22;20702;-89
2023/09/13 12:27:51;;;;;;;8.13;7.73;;;;;;;;;;6228029;23;20590;-90
2023/09/13 12:37:02;;;;;;;8.67;8.07;;;;;;;;;;6256159;22;20626;-92
2023/09/13 12:40:17;;;;;;;8.80;8.20;;;;;;;;;;6257425;22;20582;-92
2023/09/13 12:47:02;;;;;;;8.67;8.10;;;;;;;;;;6286406;22;20582;-91
2023/09/13 12:49:34;;;;;;;8.57;7.77;;;;;;;;;;6241770;22;20606;-89
2023/09/13 12:52:18;;;;;;;8.07;7.40;;;;;;;;;;6235928;22;20894;-91
2023/09/13 12:59:34;;;;;;;8.60;8.10;;;;;;;;;;6293005;22;20634;-92
2023/09/13 13:02:24;;;;;;;7.90;7.50;;;;;;;;;;6264172;22;20584;-91
2023/09/13 13:08:27;;;;;;;8.20;7.60;;;;;;;;;;6232426;22;20626;-89
2023/09/13 13:23:25;;;;;;;8.50;7.90;;;;;;;;;;6238578;22;21182;-91
2023/09/13 13:34:43;;;;;;;8.13;7.83;;;;;;;;;;6202555;22;20624;-91
2023/09/13 13:40:33;;;;;;;8.77;8.30;;;;;;;;;;6226802;22;20228;-91
2023/09/13 17:42:02;;;;;;;8.77;5.50;;;;;;;;;;6179795;23;20564;-91
2023/09/13 17:48:20;;;;;;;5.03;4.63;;;;;;;;;;6200663;22;21880;-89
2023/09/13 17:50:59;;;;;;;13.63;5.00;;;;;;;;;;6159609;23;20607;-92
2023/09/13 17:56:27;;;;;;;4.70;4.50;;;;;;;;;;6210851;22;20635;-88
2023/09/13 17:58:58;;;;;;;5.27;4.97;;;;;;;;;;6201862;23;20659;-91
2023/09/13 18:01:34;;;;;;;10.00;4.97;;;;;;;;;;6204837;23;20556;-89
2023/09/13 18:13:52;;;;;;;6.40;5.10;;;;;;;;;;6182667;22;20602;-90
2023/09/13 18:16:21;;;;;;;7.27;4.60;;;;;;;;;;6260874;22;20551;-90
2023/09/13 18:18:54;;;;;;;5.77;4.50;;;;;;;;;;6187524;23;20635;-88
2023/09/13 18:21:24;;;;;;;4.57;4.37;;;;;;;;;;6232166;23;20536;-88
2023/09/13 18:24:00;;;;;;;6.33;4.53;;;;;;;;;;6263051;22;20547;-92
2023/09/13 18:30:12;;;;;;;5.93;4.30;;;;;;;;;;6240019;23;20603;-89
2023/09/13 18:32:46;;;;;;;4.57;4.30;;;;;;;;;;6260265;22;20557;-89
2023/09/13 18:35:26;;;;;;;4.90;4.60;;;;;;;;;;6213964;23;20606;-90
2023/09/13 19:17:53;;;;;;;4.47;4.20;;;;;;;;;;6242138;22;20700;-91
2023/09/13 19:32:15;;;;;;;3.93;3.70;;;;;;;;;;6188486;22;20643;-93
2023/09/13 21:12:16;;;;;;;4.83;4.43;;;;;;;;;;6236639;22;20638;-91
2023/09/13 21:43:20;;;;;;;7.57;6.97;;;;;;;;;;6233895;22;20642;-91
2023/09/13 21:45:49;;;;;;;10.40;7.73;;;;;;;;;;6234119;22;20586;-89
2023/09/13 21:48:18;;;;;;;9.07;8.37;;;;;;;;;;6231240;22;20598;-90
2023/09/13 21:50:47;;;;;;;8.30;7.60;;;;;;;;;;6159159;23;20671;-88
2023/09/13 22:02:48;;;;;;;8.70;8.10;;;;;;;;;;6204740;22;20619;-93
2023/09/13 22:14:31;;;;;;;9.13;8.43;;;;;;;;;;6185910;22;20650;-87
2023/09/13 22:17:07;;;;;;;8.17;7.57;;;;;;;;;;6175289;22;20646;-89
2023/09/13 22:19:36;;;;;;;9.57;8.77;;;;;;;;;;6228394;23;20623;-90
2023/09/13 22:22:06;;;;;;;9.63;8.93;;;;;;;;;;6213140;23;20580;-90
2023/09/13 22:24:36;;;;;;;8.50;7.90;;;;;;;;;;6214950;23;20575;-90
2023/09/13 22:32:52;;;;;;;8.60;7.93;;;;;;;;;;6271808;22;20618;-91
2023/09/13 22:35:23;;;;;;;8.20;7.40;;;;;;;;;;6219991;23;20543;-89
2023/09/13 22:37:54;;;;;;;8.70;7.90;;;;;;;;;;6244703;22;20606;-89
2023/09/13 22:40:23;;;;;;;8.20;7.50;;;;;;;;;;6195529;23;20626;-91
2023/09/13 22:42:52;;;;;;;7.60;7.10;;;;;;;;;;6220471;23;20559;-88
2023/09/13 22:45:21;;;;;;;7.50;6.90;;;;;;;;;;6220468;23;20637;-90
2023/09/13 22:47:50;;;;;;;6.93;6.33;;;;;;;;;;6220304;23;20581;-90
2023/09/13 22:50:20;;;;;;;6.70;6.13;;;;;;;;;;6219877;23;20647;-88
2023/09/13 22:52:55;;;;;;;5.87;5.47;;;;;;;;;;6220103;23;20618;-91
2023/09/13 22:55:24;;;;;;;5.23;4.80;;;;;;;;;;6195442;23;20591;-91
2023/09/13 22:57:55;;;;;;;5.00;4.70;;;;;;;;;;6243469;23;20618;-90
2023/09/13 23:00:23;;;;;;;6.33;4.93;;;;;;;;;;6219877;22;20602;-91
2023/09/13 23:05:49;;;;;;;4.87;4.47;;;;;;;;;;6267156;22;20706;-89
2023/09/13 23:08:22;;;;;;;11.00;5.77;;;;;;;;;;6220556;23;20638;-88
2023/09/13 23:11:01;;;;;;;4.80;4.40;;;;;;;;;;6222653;23;20567;-90
2023/09/13 23:13:33;;;;;;;3.87;3.40;;;;;;;;;;6247087;22;20593;-91
2023/09/13 23:16:05;;;;;;;4.27;3.97;;;;;;;;;;6247881;22;20759;-89
2023/09/13 23:18:37;;;;;;;3.63;3.43;;;;;;;;;;6198120;23;20538;-88
2023/09/13 23:21:11;;;;;;;4.03;3.37;;;;;;;;;;6197467;23;20641;-90
2023/09/13 23:23:44;;;;;;;3.07;2.97;;;;;;;;;;6222204;23;20531;-90
2023/09/13 23:26:12;;;;;;;4.10;3.80;;;;;;;;;;6220216;23;20524;-90
2023/09/13 23:28:41;;;;;;;3.33;3.13;;;;;;;;;;6221139;23;20613;-91
2023/09/13 23:31:11;;;;;;;3.40;3.20;;;;;;;;;;6244980;23;20547;-89
2023/09/13 23:33:43;;;;;;;3.63;3.43;;;;;;;;;;6217239;23;20575;-91
2023/09/13 23:36:14;;;;;;;3.30;3.10;;;;;;;;;;6269398;22;20561;-90
2023/09/13 23:38:47;;;;;;;3.93;3.60;;;;;;;;;;6219359;23;20578;-91
2023/09/13 23:41:17;;;;;;;4.10;3.80;;;;;;;;;;6217293;23;20586;-89
2023/09/13 23:43:49;;;;;;;4.63;3.73;;;;;;;;;;6243762;22;20631;-91
2023/09/13 23:46:18;;;;;;;3.30;3.00;;;;;;;;;;6217163;23;20582;-89
2023/09/13 23:48:47;;;;;;;4.50;4.20;;;;;;;;;;6269441;23;20547;-91
2023/09/13 23:51:18;;;;;;;4.13;3.43;;;;;;;;;;6192275;23;20566;-89
2023/09/13 23:53:52;;;;;;;2.87;2.67;;;;;;;;;;6191165;23;20593;-93
2023/09/13 23:56:27;;;;;;;3.83;3.53;;;;;;;;;;6242441;23;20574;-93
2023/09/13 23:58:56;;;;;;;3.30;3.10;;;;;;;;;;6217040;23;20512;-90
